sensor_id;sensor_type;location;lat;lon;timestamp;temperature;humidity
37702;DHT22;23548;51.196;6.838;2024-03-08T00:00:15;3.60;93.10
37702;DHT22;23548;51.196;6.838;2024-03-08T00:02:44;3.50;93.50
37702;DHT22;23548;51.196;6.838;2024-03-08T00:05:11;3.60;93.60
37702;DHT22;23548;51.196;6.838;2024-03-08T00:07:38;3.40;93.90
37702;DHT22;23548;51.196;6.838;2024-03-08T00:10:04;3.40;94.10
37702;DHT22;23548;51.196;6.838;2024-03-08T00:12:30;3.40;94.20
37702;DHT22;23548;51.196;6.838;2024-03-08T00:14:56;3.30;94.70
37702;DHT22;23548;51.196;6.838;2024-03-08T00:17:22;3.30;95.00
37702;DHT22;23548;51.196;6.838;2024-03-08T00:19:51;3.20;95.20
37702;DHT22;23548;51.196;6.838;2024-03-08T00:22:17;3.20;95.30
37702;DHT22;23548;51.196;6.838;2024-03-08T00:24:43;3.10;95.30
37702;DHT22;23548;51.196;6.838;2024-03-08T00:27:09;3.10;95.60
37702;DHT22;23548;51.196;6.838;2024-03-08T00:29:35;3.00;95.80
37702;DHT22;23548;51.196;6.838;2024-03-08T00:32:01;3.00;96.20
37702;DHT22;23548;51.196;6.838;2024-03-08T00:34:27;3.00;96.30
37702;DHT22;23548;51.196;6.838;2024-03-08T00:36:52;3.00;96.20
37702;DHT22;23548;51.196;6.838;2024-03-08T00:39:18;3.00;96.90
37702;DHT22;23548;51.196;6.838;2024-03-08T00:41:48;2.90;97.00
37702;DHT22;23548;51.196;6.838;2024-03-08T00:44:14;2.80;97.30
37702;DHT22;23548;51.196;6.838;2024-03-08T00:46:40;2.80;97.60
37702;DHT22;23548;51.196;6.838;2024-03-08T00:49:05;2.80;97.60
37702;DHT22;23548;51.196;6.838;2024-03-08T00:51:32;2.80;97.60
37702;DHT22;23548;51.196;6.838;2024-03-08T00:53:58;2.80;97.60
37702;DHT22;23548;51.196;6.838;2024-03-08T00:56:23;2.90;97.80
37702;DHT22;23548;51.196;6.838;2024-03-08T00:58:50;2.90;97.70
37702;DHT22;23548;51.196;6.838;2024-03-08T01:01:18;2.90;97.50
37702;DHT22;23548;51.196;6.838;2024-03-08T01:03:44;2.90;97.40
37702;DHT22;23548;51.196;6.838;2024-03-08T01:06:10;2.90;97.60
37702;DHT22;23548;51.196;6.838;2024-03-08T01:08:37;2.90;97.20
37702;DHT22;23548;51.196;6.838;2024-03-08T01:11:04;2.90;97.00
37702;DHT22;23548;51.196;6.838;2024-03-08T01:13:30;2.90;97.30
37702;DHT22;23548;51.196;6.838;2024-03-08T01:15:56;2.80;97.50
37702;DHT22;23548;51.196;6.838;2024-03-08T01:18:22;2.70;97.90
37702;DHT22;23548;51.196;6.838;2024-03-08T01:20:48;2.70;98.20
37702;DHT22;23548;51.196;6.838;2024-03-08T01:23:13;2.60;98.10
37702;DHT22;23548;51.196;6.838;2024-03-08T01:25:39;2.60;98.10
37702;DHT22;23548;51.196;6.838;2024-03-08T01:28:06;2.60;98.30
37702;DHT22;23548;51.196;6.838;2024-03-08T01:30:32;2.60;98.30
37702;DHT22;23548;51.196;6.838;2024-03-08T01:33:00;2.50;98.30
37702;DHT22;23548;51.196;6.838;2024-03-08T01:35:26;2.40;98.40
37702;DHT22;23548;51.196;6.838;2024-03-08T01:37:53;2.40;98.70
37702;DHT22;23548;51.196;6.838;2024-03-08T01:40:19;2.40;98.80
37702;DHT22;23548;51.196;6.838;2024-03-08T01:42:44;2.40;99.20
37702;DHT22;23548;51.196;6.838;2024-03-08T01:45:10;2.30;99.30
37702;DHT22;23548;51.196;6.838;2024-03-08T01:47:36;2.30;99.30
37702;DHT22;23548;51.196;6.838;2024-03-08T01:50:03;2.30;99.40
37702;DHT22;23548;51.196;6.838;2024-03-08T01:52:30;2.20;99.40
37702;DHT22;23548;51.196;6.838;2024-03-08T01:55:02;2.30;99.70
37702;DHT22;23548;51.196;6.838;2024-03-08T01:57:31;2.30;99.30
37702;DHT22;23548;51.196;6.838;2024-03-08T02:00:00;2.30;99.30
37702;DHT22;23548;51.196;6.838;2024-03-08T02:02:33;2.30;99.40
37702;DHT22;23548;51.196;6.838;2024-03-08T02:05:01;2.40;99.20
37702;DHT22;23548;51.196;6.838;2024-03-08T02:07:26;2.40;99.00
37702;DHT22;23548;51.196;6.838;2024-03-08T02:09:52;2.50;99.00
37702;DHT22;23548;51.196;6.838;2024-03-08T02:12:18;2.50;99.10
37702;DHT22;23548;51.196;6.838;2024-03-08T02:14:46;2.50;98.90
37702;DHT22;23548;51.196;6.838;2024-03-08T02:17:12;2.50;98.90
37702;DHT22;23548;51.196;6.838;2024-03-08T02:19:38;2.50;99.10
37702;DHT22;23548;51.196;6.838;2024-03-08T02:22:05;2.50;99.20
37702;DHT22;23548;51.196;6.838;2024-03-08T02:24:31;2.50;99.00
37702;DHT22;23548;51.196;6.838;2024-03-08T02:26:57;2.60;98.70
37702;DHT22;23548;51.196;6.838;2024-03-08T02:29:24;2.60;98.60
37702;DHT22;23548;51.196;6.838;2024-03-08T02:31:53;2.60;98.60
37702;DHT22;23548;51.196;6.838;2024-03-08T02:37:42;2.70;98.30
37702;DHT22;23548;51.196;6.838;2024-03-08T02:40:08;2.70;98.30
37702;DHT22;23548;51.196;6.838;2024-03-08T02:42:34;2.60;98.30
37702;DHT22;23548;51.196;6.838;2024-03-08T02:45:00;2.60;98.30
37702;DHT22;23548;51.196;6.838;2024-03-08T02:47:26;2.60;98.50
37702;DHT22;23548;51.196;6.838;2024-03-08T02:49:52;2.60;98.80
37702;DHT22;23548;51.196;6.838;2024-03-08T02:52:18;2.50;98.70
37702;DHT22;23548;51.196;6.838;2024-03-08T02:54:47;2.50;98.70
37702;DHT22;23548;51.196;6.838;2024-03-08T02:57:13;2.50;99.20
37702;DHT22;23548;51.196;6.838;2024-03-08T02:59:40;2.40;99.20
37702;DHT22;23548;51.196;6.838;2024-03-08T03:02:06;2.50;99.00
37702;DHT22;23548;51.196;6.838;2024-03-08T03:04:32;2.50;99.00
37702;DHT22;23548;51.196;6.838;2024-03-08T03:07:00;2.50;98.90
37702;DHT22;23548;51.196;6.838;2024-03-08T03:09:26;2.40;98.90
37702;DHT22;23548;51.196;6.838;2024-03-08T03:11:56;2.40;99.00
37702;DHT22;23548;51.196;6.838;2024-03-08T03:14:22;2.30;99.40
37702;DHT22;23548;51.196;6.838;2024-03-08T03:16:48;2.20;99.60
37702;DHT22;23548;51.196;6.838;2024-03-08T03:19:13;2.30;99.40
37702;DHT22;23548;51.196;6.838;2024-03-08T03:21:40;2.40;99.30
37702;DHT22;23548;51.196;6.838;2024-03-08T03:24:08;2.50;99.00
37702;DHT22;23548;51.196;6.838;2024-03-08T03:26:39;2.50;98.90
37702;DHT22;23548;51.196;6.838;2024-03-08T03:29:06;2.50;98.60
37702;DHT22;23548;51.196;6.838;2024-03-08T03:31:34;2.50;98.50
37702;DHT22;23548;51.196;6.838;2024-03-08T03:34:00;2.40;99.10
37702;DHT22;23548;51.196;6.838;2024-03-08T03:36:31;2.30;99.00
37702;DHT22;23548;51.196;6.838;2024-03-08T03:38:57;2.30;99.00
37702;DHT22;23548;51.196;6.838;2024-03-08T03:41:52;2.30;99.10
37702;DHT22;23548;51.196;6.838;2024-03-08T03:44:18;2.20;99.30
37702;DHT22;23548;51.196;6.838;2024-03-08T03:46:44;2.20;99.20
37702;DHT22;23548;51.196;6.838;2024-03-08T03:49:09;2.20;99.10
37702;DHT22;23548;51.196;6.838;2024-03-08T03:51:35;2.20;99.20
37702;DHT22;23548;51.196;6.838;2024-03-08T03:54:01;2.10;99.40
37702;DHT22;23548;51.196;6.838;2024-03-08T03:56:29;2.10;99.60
37702;DHT22;23548;51.196;6.838;2024-03-08T03:58:55;2.00;99.70
37702;DHT22;23548;51.196;6.838;2024-03-08T04:01:22;2.10;99.90
37702;DHT22;23548;51.196;6.838;2024-03-08T04:03:48;2.00;99.90
37702;DHT22;23548;51.196;6.838;2024-03-08T04:06:13;2.00;99.90
37702;DHT22;23548;51.196;6.838;2024-03-08T04:08:40;2.00;99.90
37702;DHT22;23548;51.196;6.838;2024-03-08T04:11:06;2.00;99.90
37702;DHT22;23548;51.196;6.838;2024-03-08T04:13:34;2.10;99.90
37702;DHT22;23548;51.196;6.838;2024-03-08T04:15:59;2.20;99.80
37702;DHT22;23548;51.196;6.838;2024-03-08T04:18:25;2.20;99.60
37702;DHT22;23548;51.196;6.838;2024-03-08T04:20:51;2.20;99.50
37702;DHT22;23548;51.196;6.838;2024-03-08T04:23:17;2.10;99.60
37702;DHT22;23548;51.196;6.838;2024-03-08T04:25:43;2.00;99.70
37702;DHT22;23548;51.196;6.838;2024-03-08T04:28:09;2.00;99.80
37702;DHT22;23548;51.196;6.838;2024-03-08T04:30:38;2.00;99.90
37702;DHT22;23548;51.196;6.838;2024-03-08T04:33:05;2.00;99.90
37702;DHT22;23548;51.196;6.838;2024-03-08T04:35:32;1.90;99.90
37702;DHT22;23548;51.196;6.838;2024-03-08T04:37:58;1.90;99.90
37702;DHT22;23548;51.196;6.838;2024-03-08T04:40:25;1.90;99.90
37702;DHT22;23548;51.196;6.838;2024-03-08T04:42:52;1.90;99.90
37702;DHT22;23548;51.196;6.838;2024-03-08T04:45:18;1.90;99.90
37702;DHT22;23548;51.196;6.838;2024-03-08T04:47:44;1.90;99.90
37702;DHT22;23548;51.196;6.838;2024-03-08T04:50:09;1.90;99.90
37702;DHT22;23548;51.196;6.838;2024-03-08T04:52:36;2.00;99.90
37702;DHT22;23548;51.196;6.838;2024-03-08T04:55:02;2.10;99.90
37702;DHT22;23548;51.196;6.838;2024-03-08T04:57:30;2.10;99.90
37702;DHT22;23548;51.196;6.838;2024-03-08T04:59:56;1.90;99.90
37702;DHT22;23548;51.196;6.838;2024-03-08T05:02:23;1.90;99.90
37702;DHT22;23548;51.196;6.838;2024-03-08T05:04:49;1.90;99.90
37702;DHT22;23548;51.196;6.838;2024-03-08T05:07:14;1.90;99.90
37702;DHT22;23548;51.196;6.838;2024-03-08T05:09:40;1.80;99.90
37702;DHT22;23548;51.196;6.838;2024-03-08T05:12:07;1.80;99.90
37702;DHT22;23548;51.196;6.838;2024-03-08T05:14:33;1.80;99.90
37702;DHT22;23548;51.196;6.838;2024-03-08T05:17:00;1.90;99.90
37702;DHT22;23548;51.196;6.838;2024-03-08T05:19:26;1.90;99.90
37702;DHT22;23548;51.196;6.838;2024-03-08T05:21:52;1.90;99.90
37702;DHT22;23548;51.196;6.838;2024-03-08T05:24:18;1.90;99.90
37702;DHT22;23548;51.196;6.838;2024-03-08T05:26:44;1.90;99.90
37702;DHT22;23548;51.196;6.838;2024-03-08T05:29:10;2.00;99.90
37702;DHT22;23548;51.196;6.838;2024-03-08T05:31:46;2.00;99.90
37702;DHT22;23548;51.196;6.838;2024-03-08T05:34:14;2.00;99.90
37702;DHT22;23548;51.196;6.838;2024-03-08T05:36:40;2.00;99.90
37702;DHT22;23548;51.196;6.838;2024-03-08T05:39:06;2.00;99.90
37702;DHT22;23548;51.196;6.838;2024-03-08T05:41:32;2.00;99.90
37702;DHT22;23548;51.196;6.838;2024-03-08T05:43:58;2.10;99.90
37702;DHT22;23548;51.196;6.838;2024-03-08T05:46:24;2.10;99.90
37702;DHT22;23548;51.196;6.838;2024-03-08T05:48:50;2.10;99.90
37702;DHT22;23548;51.196;6.838;2024-03-08T05:51:16;2.10;99.90
37702;DHT22;23548;51.196;6.838;2024-03-08T05:53:42;2.10;99.90
37702;DHT22;23548;51.196;6.838;2024-03-08T05:56:08;2.10;99.90
37702;DHT22;23548;51.196;6.838;2024-03-08T05:58:34;2.10;99.90
37702;DHT22;23548;51.196;6.838;2024-03-08T06:01:00;2.10;99.90
37702;DHT22;23548;51.196;6.838;2024-03-08T06:03:26;2.30;99.90
37702;DHT22;23548;51.196;6.838;2024-03-08T06:05:52;2.30;99.90
37702;DHT22;23548;51.196;6.838;2024-03-08T06:08:17;2.40;99.90
37702;DHT22;23548;51.196;6.838;2024-03-08T06:10:44;2.40;99.90
37702;DHT22;23548;51.196;6.838;2024-03-08T06:13:10;2.40;99.90
37702;DHT22;23548;51.196;6.838;2024-03-08T06:15:37;2.40;99.90
37702;DHT22;23548;51.196;6.838;2024-03-08T06:18:03;2.40;99.90
37702;DHT22;23548;51.196;6.838;2024-03-08T06:20:31;2.70;99.90
37702;DHT22;23548;51.196;6.838;2024-03-08T06:22:56;2.70;99.90
37702;DHT22;23548;51.196;6.838;2024-03-08T06:25:22;2.80;99.90
37702;DHT22;23548;51.196;6.838;2024-03-08T06:27:48;2.90;99.90
37702;DHT22;23548;51.196;6.838;2024-03-08T06:30:14;2.90;99.90
37702;DHT22;23548;51.196;6.838;2024-03-08T06:32:41;3.00;99.90
37702;DHT22;23548;51.196;6.838;2024-03-08T06:35:08;3.00;99.90
37702;DHT22;23548;51.196;6.838;2024-03-08T06:37:35;3.20;99.90
37702;DHT22;23548;51.196;6.838;2024-03-08T06:40:02;3.20;99.90
37702;DHT22;23548;51.196;6.838;2024-03-08T06:42:29;3.30;99.90
37702;DHT22;23548;51.196;6.838;2024-03-08T06:44:57;3.40;99.70
37702;DHT22;23548;51.196;6.838;2024-03-08T06:47:29;3.60;99.80
37702;DHT22;23548;51.196;6.838;2024-03-08T06:49:55;3.70;99.70
37702;DHT22;23548;51.196;6.838;2024-03-08T06:52:21;3.80;99.30
37702;DHT22;23548;51.196;6.838;2024-03-08T06:54:48;3.90;98.50
37702;DHT22;23548;51.196;6.838;2024-03-08T06:57:13;3.90;98.30
37702;DHT22;23548;51.196;6.838;2024-03-08T06:59:42;4.00;98.60
37702;DHT22;23548;51.196;6.838;2024-03-08T07:02:08;4.00;98.30
37702;DHT22;23548;51.196;6.838;2024-03-08T07:04:35;4.10;98.60
37702;DHT22;23548;51.196;6.838;2024-03-08T07:07:06;4.20;97.90
37702;DHT22;23548;51.196;6.838;2024-03-08T07:09:40;4.30;97.90
37702;DHT22;23548;51.196;6.838;2024-03-08T07:12:08;4.30;97.60
37702;DHT22;23548;51.196;6.838;2024-03-08T07:14:33;4.40;98.00
37702;DHT22;23548;51.196;6.838;2024-03-08T07:16:59;4.50;97.40
37702;DHT22;23548;51.196;6.838;2024-03-08T07:19:25;4.50;97.00
37702;DHT22;23548;51.196;6.838;2024-03-08T07:21:51;4.60;97.20
37702;DHT22;23548;51.196;6.838;2024-03-08T07:24:16;4.70;97.10
37702;DHT22;23548;51.196;6.838;2024-03-08T07:27:01;4.70;97.50
37702;DHT22;23548;51.196;6.838;2024-03-08T07:29:26;4.80;96.40
37702;DHT22;23548;51.196;6.838;2024-03-08T07:31:52;4.80;96.60
37702;DHT22;23548;51.196;6.838;2024-03-08T07:34:53;4.80;96.80
37702;DHT22;23548;51.196;6.838;2024-03-08T07:37:20;4.90;96.40
37702;DHT22;23548;51.196;6.838;2024-03-08T07:39:47;5.00;96.60
37702;DHT22;23548;51.196;6.838;2024-03-08T07:42:12;5.00;96.20
37702;DHT22;23548;51.196;6.838;2024-03-08T07:44:38;5.10;95.80
37702;DHT22;23548;51.196;6.838;2024-03-08T07:47:05;5.20;95.50
37702;DHT22;23548;51.196;6.838;2024-03-08T07:49:37;5.30;95.10
37702;DHT22;23548;51.196;6.838;2024-03-08T07:52:06;5.30;95.10
37702;DHT22;23548;51.196;6.838;2024-03-08T07:54:33;5.40;94.40
37702;DHT22;23548;51.196;6.838;2024-03-08T07:57:00;5.40;94.30
37702;DHT22;23548;51.196;6.838;2024-03-08T07:59:28;5.50;94.20
37702;DHT22;23548;51.196;6.838;2024-03-08T08:01:55;5.50;94.10
37702;DHT22;23548;51.196;6.838;2024-03-08T08:04:21;5.60;94.30
37702;DHT22;23548;51.196;6.838;2024-03-08T08:06:50;5.70;93.70
37702;DHT22;23548;51.196;6.838;2024-03-08T08:09:16;5.70;93.80
37702;DHT22;23548;51.196;6.838;2024-03-08T08:11:55;5.80;94.20
37702;DHT22;23548;51.196;6.838;2024-03-08T08:14:20;5.90;93.80
37702;DHT22;23548;51.196;6.838;2024-03-08T08:16:47;6.10;94.00
37702;DHT22;23548;51.196;6.838;2024-03-08T08:19:14;6.10;93.00
37702;DHT22;23548;51.196;6.838;2024-03-08T08:21:41;6.20;93.20
37702;DHT22;23548;51.196;6.838;2024-03-08T08:24:07;6.30;92.70
37702;DHT22;23548;51.196;6.838;2024-03-08T08:26:32;6.30;92.00
37702;DHT22;23548;51.196;6.838;2024-03-08T08:28:59;6.40;92.80
37702;DHT22;23548;51.196;6.838;2024-03-08T08:31:25;6.50;91.90
37702;DHT22;23548;51.196;6.838;2024-03-08T08:33:51;6.70;92.60
37702;DHT22;23548;51.196;6.838;2024-03-08T08:36:26;6.80;92.50
37702;DHT22;23548;51.196;6.838;2024-03-08T08:38:52;6.80;90.50
37702;DHT22;23548;51.196;6.838;2024-03-08T08:41:21;6.90;91.20
37702;DHT22;23548;51.196;6.838;2024-03-08T08:43:47;7.00;90.60
37702;DHT22;23548;51.196;6.838;2024-03-08T08:46:17;7.10;91.70
37702;DHT22;23548;51.196;6.838;2024-03-08T08:48:43;7.20;87.90
37702;DHT22;23548;51.196;6.838;2024-03-08T08:51:13;7.10;91.00
37702;DHT22;23548;51.196;6.838;2024-03-08T08:53:42;7.20;87.50
37702;DHT22;23548;51.196;6.838;2024-03-08T08:56:12;7.20;87.30
37702;DHT22;23548;51.196;6.838;2024-03-08T08:58:42;7.30;88.40
37702;DHT22;23548;51.196;6.838;2024-03-08T09:01:11;7.40;85.30
37702;DHT22;23548;51.196;6.838;2024-03-08T09:03:37;7.40;83.90
37702;DHT22;23548;51.196;6.838;2024-03-08T09:06:04;7.40;83.40
37702;DHT22;23548;51.196;6.838;2024-03-08T09:08:30;7.50;84.50
37702;DHT22;23548;51.196;6.838;2024-03-08T09:10:56;7.60;85.50
37702;DHT22;23548;51.196;6.838;2024-03-08T09:13:22;7.60;81.60
37702;DHT22;23548;51.196;6.838;2024-03-08T09:15:48;7.60;82.80
37702;DHT22;23548;51.196;6.838;2024-03-08T09:18:14;7.70;83.20
37702;DHT22;23548;51.196;6.838;2024-03-08T09:20:40;7.90;83.60
37702;DHT22;23548;51.196;6.838;2024-03-08T09:23:06;8.10;82.50
37702;DHT22;23548;51.196;6.838;2024-03-08T09:25:33;8.20;84.30
37702;DHT22;23548;51.196;6.838;2024-03-08T09:27:59;8.20;79.90
37702;DHT22;23548;51.196;6.838;2024-03-08T09:30:25;8.30;79.10
37702;DHT22;23548;51.196;6.838;2024-03-08T09:32:51;8.40;78.00
37702;DHT22;23548;51.196;6.838;2024-03-08T09:35:17;8.40;83.30
37702;DHT22;23548;51.196;6.838;2024-03-08T09:37:43;8.40;80.20
37702;DHT22;23548;51.196;6.838;2024-03-08T09:40:09;8.40;78.00
37702;DHT22;23548;51.196;6.838;2024-03-08T09:42:38;8.30;76.80
37702;DHT22;23548;51.196;6.838;2024-03-08T09:45:10;8.30;77.20
37702;DHT22;23548;51.196;6.838;2024-03-08T09:47:43;8.30;77.20
37702;DHT22;23548;51.196;6.838;2024-03-08T09:50:10;8.40;80.50
37702;DHT22;23548;51.196;6.838;2024-03-08T09:52:41;8.60;77.70
37702;DHT22;23548;51.196;6.838;2024-03-08T09:55:10;8.80;78.90
37702;DHT22;23548;51.196;6.838;2024-03-08T09:57:43;8.80;74.00
37702;DHT22;23548;51.196;6.838;2024-03-08T10:00:29;8.90;75.80
37702;DHT22;23548;51.196;6.838;2024-03-08T10:03:01;9.00;73.70
37702;DHT22;23548;51.196;6.838;2024-03-08T10:05:27;8.70;73.70
37702;DHT22;23548;51.196;6.838;2024-03-08T10:07:53;8.50;72.20
37702;DHT22;23548;51.196;6.838;2024-03-08T10:10:19;8.80;73.10
37702;DHT22;23548;51.196;6.838;2024-03-08T10:12:46;9.00;76.10
37702;DHT22;23548;51.196;6.838;2024-03-08T10:15:12;9.20;72.70
37702;DHT22;23548;51.196;6.838;2024-03-08T10:17:38;9.10;72.50
37702;DHT22;23548;51.196;6.838;2024-03-08T10:20:15;8.90;71.40
37702;DHT22;23548;51.196;6.838;2024-03-08T10:22:42;8.80;71.00
37702;DHT22;23548;51.196;6.838;2024-03-08T10:25:12;9.10;70.90
37702;DHT22;23548;51.196;6.838;2024-03-08T10:27:41;9.20;71.90
37702;DHT22;23548;51.196;6.838;2024-03-08T10:30:17;9.00;68.20
37702;DHT22;23548;51.196;6.838;2024-03-08T10:32:47;9.20;69.50
37702;DHT22;23548;51.196;6.838;2024-03-08T10:35:13;9.30;70.10
37702;DHT22;23548;51.196;6.838;2024-03-08T10:37:47;9.30;69.80
37702;DHT22;23548;51.196;6.838;2024-03-08T10:40:16;9.00;66.10
37702;DHT22;23548;51.196;6.838;2024-03-08T10:42:55;9.20;66.80
37702;DHT22;23548;51.196;6.838;2024-03-08T10:45:38;9.30;65.60
37702;DHT22;23548;51.196;6.838;2024-03-08T10:48:29;9.50;66.50
37702;DHT22;23548;51.196;6.838;2024-03-08T10:51:04;9.70;66.20
37702;DHT22;23548;51.196;6.838;2024-03-08T10:53:30;9.50;65.30
37702;DHT22;23548;51.196;6.838;2024-03-08T10:55:59;9.50;64.60
37702;DHT22;23548;51.196;6.838;2024-03-08T10:58:27;9.60;66.00
37702;DHT22;23548;51.196;6.838;2024-03-08T11:00:54;9.70;64.00
37702;DHT22;23548;51.196;6.838;2024-03-08T11:08:57;10.00;61.40
37702;DHT22;23548;51.196;6.838;2024-03-08T11:11:31;9.90;62.20
37702;DHT22;23548;51.196;6.838;2024-03-08T11:13:58;10.10;59.70
37702;DHT22;23548;51.196;6.838;2024-03-08T11:19:01;10.10;59.50
37702;DHT22;23548;51.196;6.838;2024-03-08T11:21:31;10.10;59.10
37702;DHT22;23548;51.196;6.838;2024-03-08T11:24:02;10.00;59.30
37702;DHT22;23548;51.196;6.838;2024-03-08T11:26:31;10.20;58.20
37702;DHT22;23548;51.196;6.838;2024-03-08T11:32:12;10.50;59.10
37702;DHT22;23548;51.196;6.838;2024-03-08T11:34:42;10.70;59.10
37702;DHT22;23548;51.196;6.838;2024-03-08T11:37:14;10.90;60.00
37702;DHT22;23548;51.196;6.838;2024-03-08T11:39:53;11.00;56.50
37702;DHT22;23548;51.196;6.838;2024-03-08T11:42:25;11.00;58.30
37702;DHT22;23548;51.196;6.838;2024-03-08T11:44:53;11.10;58.10
37702;DHT22;23548;51.196;6.838;2024-03-08T11:47:20;11.10;55.60
37702;DHT22;23548;51.196;6.838;2024-03-08T11:49:46;10.60;55.10
37702;DHT22;23548;51.196;6.838;2024-03-08T11:52:18;10.80;56.20
37702;DHT22;23548;51.196;6.838;2024-03-08T11:54:54;11.00;59.10
37702;DHT22;23548;51.196;6.838;2024-03-08T11:57:26;11.20;59.80
37702;DHT22;23548;51.196;6.838;2024-03-08T11:59:54;11.30;55.10
37702;DHT22;23548;51.196;6.838;2024-03-08T12:02:22;11.30;56.10
37702;DHT22;23548;51.196;6.838;2024-03-08T12:04:56;11.10;54.70
37702;DHT22;23548;51.196;6.838;2024-03-08T12:07:23;11.20;54.40
37702;DHT22;23548;51.196;6.838;2024-03-08T12:10:20;11.00;54.50
37702;DHT22;23548;51.196;6.838;2024-03-08T12:12:51;11.20;54.80
37702;DHT22;23548;51.196;6.838;2024-03-08T12:15:21;11.10;53.30
37702;DHT22;23548;51.196;6.838;2024-03-08T12:17:52;11.20;54.60
37702;DHT22;23548;51.196;6.838;2024-03-08T12:20:23;11.20;53.00
37702;DHT22;23548;51.196;6.838;2024-03-08T12:22:52;11.40;54.90
37702;DHT22;23548;51.196;6.838;2024-03-08T12:25:19;11.50;53.20
37702;DHT22;23548;51.196;6.838;2024-03-08T12:27:46;11.70;54.80
37702;DHT22;23548;51.196;6.838;2024-03-08T12:30:19;11.80;55.00
37702;DHT22;23548;51.196;6.838;2024-03-08T12:32:54;12.00;56.20
37702;DHT22;23548;51.196;6.838;2024-03-08T12:35:23;11.80;51.80
37702;DHT22;23548;51.196;6.838;2024-03-08T12:37:54;12.00;55.00
37702;DHT22;23548;51.196;6.838;2024-03-08T12:40:31;12.10;53.90
37702;DHT22;23548;51.196;6.838;2024-03-08T12:43:01;11.70;50.30
37702;DHT22;23548;51.196;6.838;2024-03-08T12:45:28;11.60;51.50
37702;DHT22;23548;51.196;6.838;2024-03-08T12:47:54;11.50;51.50
37702;DHT22;23548;51.196;6.838;2024-03-08T12:50:21;11.70;52.00
37702;DHT22;23548;51.196;6.838;2024-03-08T12:52:48;11.60;51.10
37702;DHT22;23548;51.196;6.838;2024-03-08T12:55:18;11.50;53.60
37702;DHT22;23548;51.196;6.838;2024-03-08T12:57:44;11.80;56.10
37702;DHT22;23548;51.196;6.838;2024-03-08T13:00:11;12.10;55.30
37702;DHT22;23548;51.196;6.838;2024-03-08T13:02:47;12.30;58.10
37702;DHT22;23548;51.196;6.838;2024-03-08T13:05:13;12.40;52.30
37702;DHT22;23548;51.196;6.838;2024-03-08T13:07:43;12.40;55.50
37702;DHT22;23548;51.196;6.838;2024-03-08T13:10:12;12.50;53.80
37702;DHT22;23548;51.196;6.838;2024-03-08T13:12:41;11.90;50.40
37702;DHT22;23548;51.196;6.838;2024-03-08T13:15:08;11.90;50.60
37702;DHT22;23548;51.196;6.838;2024-03-08T13:17:34;11.80;50.50
37702;DHT22;23548;51.196;6.838;2024-03-08T13:20:00;11.60;50.90
37702;DHT22;23548;51.196;6.838;2024-03-08T13:22:26;11.50;50.20
37702;DHT22;23548;51.196;6.838;2024-03-08T13:24:53;11.50;49.80
37702;DHT22;23548;51.196;6.838;2024-03-08T13:27:19;11.70;51.60
37702;DHT22;23548;51.196;6.838;2024-03-08T13:29:48;11.70;49.90
37702;DHT22;23548;51.196;6.838;2024-03-08T13:32:15;12.10;50.40
37702;DHT22;23548;51.196;6.838;2024-03-08T13:34:43;11.90;51.30
37702;DHT22;23548;51.196;6.838;2024-03-08T13:37:09;12.20;50.40
37702;DHT22;23548;51.196;6.838;2024-03-08T13:39:37;11.90;48.70
37702;DHT22;23548;51.196;6.838;2024-03-08T13:42:07;12.10;54.90
37702;DHT22;23548;51.196;6.838;2024-03-08T13:44:35;12.40;49.80
37702;DHT22;23548;51.196;6.838;2024-03-08T13:47:02;12.50;50.00
37702;DHT22;23548;51.196;6.838;2024-03-08T13:49:30;12.60;50.10
37702;DHT22;23548;51.196;6.838;2024-03-08T13:51:56;12.70;54.30
37702;DHT22;23548;51.196;6.838;2024-03-08T13:54:24;12.90;50.10
37702;DHT22;23548;51.196;6.838;2024-03-08T13:56:52;12.60;48.60
37702;DHT22;23548;51.196;6.838;2024-03-08T13:59:20;12.80;50.60
37702;DHT22;23548;51.196;6.838;2024-03-08T14:01:48;12.90;48.00
37702;DHT22;23548;51.196;6.838;2024-03-08T14:04:16;13.10;49.10
37702;DHT22;23548;51.196;6.838;2024-03-08T14:06:45;12.90;46.20
37702;DHT22;23548;51.196;6.838;2024-03-08T14:09:11;12.80;48.20
37702;DHT22;23548;51.196;6.838;2024-03-08T14:11:46;13.00;49.50
37702;DHT22;23548;51.196;6.838;2024-03-08T14:14:12;12.70;46.40
37702;DHT22;23548;51.196;6.838;2024-03-08T14:16:40;13.20;46.30
37702;DHT22;23548;51.196;6.838;2024-03-08T14:19:06;14.60;44.40
37702;DHT22;23548;51.196;6.838;2024-03-08T14:21:32;15.30;42.70
37702;DHT22;23548;51.196;6.838;2024-03-08T14:23:59;16.30;41.60
37702;DHT22;23548;51.196;6.838;2024-03-08T14:26:24;16.30;38.70
37702;DHT22;23548;51.196;6.838;2024-03-08T14:28:51;15.30;39.90
37702;DHT22;23548;51.196;6.838;2024-03-08T14:31:20;15.50;39.20
37702;DHT22;23548;51.196;6.838;2024-03-08T14:33:49;16.60;39.10
37702;DHT22;23548;51.196;6.838;2024-03-08T14:36:15;16.50;38.00
37702;DHT22;23548;51.196;6.838;2024-03-08T14:38:45;15.80;37.00
37702;DHT22;23548;51.196;6.838;2024-03-08T14:41:13;15.40;37.90
37702;DHT22;23548;51.196;6.838;2024-03-08T14:43:44;15.00;38.30
37702;DHT22;23548;51.196;6.838;2024-03-08T14:46:14;16.10;38.10
37702;DHT22;23548;51.196;6.838;2024-03-08T14:48:45;17.00;37.40
37702;DHT22;23548;51.196;6.838;2024-03-08T14:51:11;17.00;34.50
37702;DHT22;23548;51.196;6.838;2024-03-08T14:53:40;15.80;37.70
37702;DHT22;23548;51.196;6.838;2024-03-08T14:56:09;16.70;37.30
37702;DHT22;23548;51.196;6.838;2024-03-08T14:58:35;17.70;40.70
37702;DHT22;23548;51.196;6.838;2024-03-08T15:01:03;16.50;36.50
37702;DHT22;23548;51.196;6.838;2024-03-08T15:03:34;16.50;36.00
37702;DHT22;23548;51.196;6.838;2024-03-08T15:06:01;14.80;36.50
37702;DHT22;23548;51.196;6.838;2024-03-08T15:08:27;13.90;39.00
37702;DHT22;23548;51.196;6.838;2024-03-08T15:10:54;14.10;39.90
37702;DHT22;23548;51.196;6.838;2024-03-08T15:13:22;14.10;39.60
37702;DHT22;23548;51.196;6.838;2024-03-08T15:15:50;14.20;39.90
37702;DHT22;23548;51.196;6.838;2024-03-08T15:18:23;13.90;39.30
37702;DHT22;23548;51.196;6.838;2024-03-08T15:21:00;14.50;40.20
37702;DHT22;23548;51.196;6.838;2024-03-08T15:23:26;14.80;38.50
37702;DHT22;23548;51.196;6.838;2024-03-08T15:25:52;14.80;38.40
37702;DHT22;23548;51.196;6.838;2024-03-08T15:28:18;16.30;38.20
37702;DHT22;23548;51.196;6.838;2024-03-08T15:30:49;15.60;37.50
37702;DHT22;23548;51.196;6.838;2024-03-08T15:33:20;14.90;39.10
37702;DHT22;23548;51.196;6.838;2024-03-08T15:35:52;15.40;37.70
37702;DHT22;23548;51.196;6.838;2024-03-08T15:38:25;15.00;38.80
37702;DHT22;23548;51.196;6.838;2024-03-08T15:40:53;14.00;40.10
37702;DHT22;23548;51.196;6.838;2024-03-08T15:43:20;12.70;42.40
37702;DHT22;23548;51.196;6.838;2024-03-08T15:45:46;12.00;43.70
37702;DHT22;23548;51.196;6.838;2024-03-08T15:48:12;11.60;44.20
37702;DHT22;23548;51.196;6.838;2024-03-08T15:50:38;11.60;46.00
37702;DHT22;23548;51.196;6.838;2024-03-08T15:53:05;11.50;45.90
37702;DHT22;23548;51.196;6.838;2024-03-08T15:55:31;11.40;45.60
37702;DHT22;23548;51.196;6.838;2024-03-08T15:57:57;11.50;45.90
37702;DHT22;23548;51.196;6.838;2024-03-08T16:00:25;11.50;45.60